createdAt,value
2019-06-08T00:00:48.855Z,56.32
2019-06-08T00:03:22.650Z,58.57
2019-06-08T00:05:55.750Z,60.20
2019-06-08T00:08:28.634Z,62.19
2019-06-08T00:11:01.725Z,62.62
2019-06-08T00:13:36.361Z,55.93
2019-06-08T00:16:09.129Z,54.88
2019-06-08T00:18:41.804Z,57.19
2019-06-08T00:21:15.505Z,58.96
2019-06-08T00:23:48.606Z,60.58
2019-06-08T00:26:22.078Z,62.23
2019-06-08T00:28:56.010Z,62.61
2019-06-08T00:31:28.992Z,55.11
2019-06-08T00:34:01.982Z,53.16
2019-06-08T00:36:34.864Z,55.67
2019-06-08T00:39:10.410Z,58.12
2019-06-08T00:41:43.087Z,59.88
2019-06-08T00:44:17.049Z,61.74
2019-06-08T00:46:49.880Z,63.41
2019-06-08T00:49:22.741Z,63.87
2019-06-08T00:51:55.548Z,56.41
2019-06-08T00:54:29.755Z,54.20
2019-06-08T00:57:02.749Z,56.68
2019-06-08T00:59:35.327Z,59.57
2019-06-08T01:02:08.415Z,61.24
2019-06-08T01:04:41.006Z,62.86
2019-06-08T01:07:13.879Z,63.03
2019-06-08T01:09:46.972Z,55.69
2019-06-08T01:12:20.491Z,53.42
2019-06-08T01:14:53.964Z,56.16
2019-06-08T01:17:27.459Z,58.28
2019-06-08T01:20:00.345Z,60.59
2019-06-08T01:22:33.128Z,61.97
2019-06-08T01:25:06.851Z,62.94
2019-06-08T01:27:39.509Z,63.20
2019-06-08T01:30:13.009Z,55.46
2019-06-08T01:32:45.685Z,53.68
2019-06-08T01:35:18.678Z,56.80
2019-06-08T01:37:51.216Z,58.58
2019-06-08T01:40:25.293Z,61.51
2019-06-08T01:42:57.853Z,63.51
2019-06-08T01:45:32.926Z,63.82
2019-06-08T01:48:19.230Z,56.69
2019-06-08T01:50:41.920Z,54.82
2019-06-08T01:53:14.905Z,56.63
2019-06-08T01:55:47.789Z,58.88
2019-06-08T01:58:20.469Z,61.21
2019-06-08T02:00:52.703Z,63.55
2019-06-08T02:03:26.257Z,63.05
2019-06-08T02:05:59.128Z,55.95
2019-06-08T02:08:32.645Z,54.67
2019-06-08T02:11:05.672Z,57.82
2019-06-08T02:13:38.804Z,60.39
2019-06-08T02:16:13.625Z,62.20
2019-06-08T02:18:50.768Z,63.96
2019-06-08T02:21:20.631Z,63.65
2019-06-08T02:23:54.944Z,56.11
2019-06-08T02:26:41.415Z,54.66
2019-06-08T02:29:15.869Z,57.68
2019-06-08T02:31:50.285Z,60.23
2019-06-08T02:34:25.137Z,62.53
2019-06-08T02:36:58.306Z,62.13
2019-06-08T02:39:44.914Z,57.08
2019-06-08T02:42:19.228Z,59.45
2019-06-08T02:44:53.037Z,61.67
2019-06-08T02:47:28.428Z,64.82
2019-06-08T02:50:03.521Z,57.84
2019-06-08T02:52:48.335Z,55.88
2019-06-08T02:55:33.062Z,58.77
2019-06-08T02:58:08.991Z,61.43
2019-06-08T03:00:43.722Z,63.06
2019-06-08T03:03:18.822Z,62.73
2019-06-08T03:05:53.183Z,55.28
2019-06-08T03:08:42.104Z,54.89
2019-06-08T03:11:17.477Z,57.71
2019-06-08T03:13:53.919Z,60.26
2019-06-08T03:16:28.777Z,62.25
2019-06-08T03:19:19.919Z,61.31
2019-06-08T03:21:40.598Z,53.98
2019-06-08T03:24:14.574Z,54.43
2019-06-08T03:26:48.916Z,57.20
2019-06-08T03:29:32.535Z,59.97
2019-06-08T03:32:05.657Z,60.94
2019-06-08T03:34:45.979Z,62.39
2019-06-08T03:37:13.149Z,62.40
2019-06-08T03:39:46.137Z,55.33
2019-06-08T03:42:19.121Z,53.95
2019-06-08T03:44:52.013Z,57.61
2019-06-08T03:47:24.705Z,60.12
2019-06-08T03:49:57.897Z,62.11
2019-06-08T03:52:31.076Z,63.36
2019-06-08T03:55:04.053Z,62.95
2019-06-08T03:57:38.203Z,55.23
2019-06-08T04:00:13.626Z,54.99
2019-06-08T04:02:47.717Z,57.48
2019-06-08T04:05:20.509Z,59.39
2019-06-08T04:07:53.124Z,61.47
2019-06-08T04:10:25.970Z,63.23
2019-06-08T04:12:58.952Z,61.97
2019-06-08T04:15:31.839Z,54.27
2019-06-08T04:18:04.721Z,54.89
2019-06-08T04:20:37.982Z,57.52
2019-06-08T04:23:11.217Z,59.60
2019-06-08T04:25:45.048Z,61.97
2019-06-08T04:28:18.727Z,65.09
2019-06-08T04:30:51.708Z,58.23
2019-06-08T04:33:24.691Z,55.73
2019-06-08T04:35:58.801Z,58.37
2019-06-08T04:38:31.587Z,60.35
2019-06-08T04:41:04.134Z,61.63
2019-06-08T04:43:38.476Z,63.24
2019-06-08T04:46:11.362Z,60.78
2019-06-08T04:48:45.351Z,54.01
2019-06-08T04:51:18.804Z,54.88
2019-06-08T04:53:51.651Z,57.19
2019-06-08T04:56:24.329Z,59.37
2019-06-08T04:58:56.618Z,60.39
2019-06-08T05:01:28.851Z,61.97
2019-06-08T05:04:01.159Z,62.44
2019-06-08T05:06:33.825Z,61.57
2019-06-08T05:09:09.117Z,54.08
2019-06-08T05:11:43.147Z,55.18
2019-06-08T05:14:15.739Z,57.19
2019-06-08T05:16:49.727Z,59.11
2019-06-08T05:19:23.154Z,60.71
2019-06-08T05:21:55.835Z,62.04
2019-06-08T05:24:28.327Z,63.42
2019-06-08T05:27:00.885Z,58.97
2019-06-08T05:29:33.564Z,55.92
2019-06-08T05:32:05.795Z,57.77
2019-06-08T05:34:39.343Z,60.26
2019-06-08T05:37:11.909Z,61.91
2019-06-08T05:39:45.554Z,63.37
2019-06-08T05:42:18.023Z,58.03
2019-06-08T05:44:50.672Z,56.52
2019-06-08T05:47:23.450Z,58.85
2019-06-08T05:49:56.225Z,61.12
2019-06-08T05:52:28.908Z,62.25
2019-06-08T05:55:01.896Z,60.71
2019-06-08T05:57:35.292Z,55.37
2019-06-08T06:00:13.025Z,57.54
2019-06-08T06:02:46.970Z,59.69
2019-06-08T06:05:19.983Z,61.60
2019-06-08T06:07:52.876Z,62.75
2019-06-08T06:10:26.907Z,57.15
2019-06-08T06:12:59.463Z,56.03
2019-06-08T06:15:32.442Z,58.41
2019-06-08T06:18:04.681Z,60.76
2019-06-08T06:20:37.901Z,62.28
2019-06-08T06:23:10.601Z,62.42
2019-06-08T06:25:43.419Z,56.33
2019-06-08T06:28:16.350Z,57.48
2019-06-08T06:30:50.105Z,59.48
2019-06-08T06:33:23.246Z,60.98
2019-06-08T06:35:55.923Z,62.15
2019-06-08T06:38:28.599Z,62.28
2019-06-08T06:41:00.986Z,56.75
2019-06-08T06:43:34.574Z,57.39
2019-06-08T06:46:07.354Z,58.89
2019-06-08T06:48:39.965Z,60.66
2019-06-08T06:51:25.273Z,61.64
2019-06-08T06:53:46.601Z,62.63
2019-06-08T06:56:19.303Z,59.64
2019-06-08T06:58:51.982Z,54.51
2019-06-08T07:01:24.665Z,55.69
2019-06-08T07:03:57.599Z,57.46
2019-06-08T07:06:30.350Z,58.74
2019-06-08T07:09:03.009Z,59.34
2019-06-08T07:11:36.007Z,60.07
2019-06-08T07:14:08.977Z,60.78
2019-06-08T07:16:41.575Z,61.39
2019-06-08T07:19:14.339Z,61.56
2019-06-08T07:21:48.291Z,62.07
2019-06-08T07:24:21.746Z,62.09
2019-06-08T07:26:54.643Z,62.35
2019-06-08T07:29:27.319Z,56.27
2019-06-08T07:31:59.991Z,56.32
2019-06-08T07:34:32.873Z,57.75
2019-06-08T07:37:05.604Z,59.05
2019-06-08T07:39:38.550Z,59.37
2019-06-08T07:42:11.320Z,59.85
2019-06-08T07:44:44.408Z,60.45
2019-06-08T07:47:17.290Z,60.80
2019-06-08T07:49:51.137Z,60.99
2019-06-08T07:52:23.879Z,60.30
2019-06-08T07:54:56.966Z,60.47
2019-06-08T07:57:29.751Z,60.79
2019-06-08T08:00:09.122Z,60.97
2019-06-08T08:02:37.259Z,61.03
2019-06-08T08:05:10.291Z,61.17
2019-06-08T08:07:43.026Z,61.11
2019-06-08T08:10:16.503Z,61.21
2019-06-08T08:12:49.314Z,61.59
2019-06-08T08:15:23.319Z,61.40
2019-06-08T08:17:57.673Z,61.37
2019-06-08T08:20:30.931Z,61.88
2019-06-08T08:23:06.195Z,62.00
2019-06-08T08:25:38.017Z,62.20
2019-06-08T08:28:10.917Z,61.24
2019-06-08T08:30:43.794Z,60.07
2019-06-08T08:33:18.435Z,59.54
2019-06-08T08:35:52.212Z,59.19
2019-06-08T08:38:27.315Z,58.66
2019-06-08T08:41:06.857Z,56.57
2019-06-08T08:43:34.769Z,57.44
2019-06-08T08:46:07.764Z,56.19
2019-06-08T08:48:40.744Z,56.25
2019-06-08T08:51:13.730Z,54.39
2019-06-08T08:53:48.140Z,53.29
2019-06-08T08:56:21.138Z,53.22
2019-06-08T08:58:56.559Z,53.20
2019-06-08T09:01:29.364Z,51.08
2019-06-08T09:04:04.979Z,53.06
2019-06-08T09:06:38.090Z,50.41
2019-06-08T09:09:10.642Z,49.46
2019-06-08T09:11:43.893Z,47.79
2019-06-08T09:14:18.635Z,47.63
2019-06-08T09:16:52.649Z,46.82
2019-06-08T09:19:27.906Z,45.97
2019-06-08T09:22:02.734Z,45.46
2019-06-08T09:24:38.792Z,45.47
2019-06-08T09:27:11.926Z,45.53
2019-06-08T09:29:44.717Z,45.69
2019-06-08T09:32:18.012Z,46.29
2019-06-08T09:34:52.923Z,44.80
2019-06-08T09:37:25.301Z,45.59
2019-06-08T09:39:58.979Z,45.83
2019-06-08T09:42:32.069Z,46.28
2019-06-08T09:45:11.919Z,45.93
2019-06-08T09:47:44.582Z,45.92
2019-06-08T09:50:18.675Z,45.08
2019-06-08T09:53:06.022Z,45.02
2019-06-08T09:55:25.365Z,44.45
2019-06-08T09:58:01.954Z,44.08
2019-06-08T10:00:32.281Z,44.19
2019-06-08T10:03:07.132Z,43.33
2019-06-08T10:05:39.798Z,41.83
2019-06-08T10:08:12.476Z,43.36
2019-06-08T10:10:45.159Z,43.05
2019-06-08T10:13:18.979Z,41.78
2019-06-08T10:15:51.863Z,42.17
2019-06-08T10:18:24.794Z,41.28
2019-06-08T10:21:00.662Z,40.62
2019-06-08T10:23:34.644Z,40.81
2019-06-08T10:26:06.787Z,41.33
2019-06-08T10:28:39.646Z,41.31
2019-06-08T10:31:12.326Z,41.08
2019-06-08T10:33:48.021Z,40.58
2019-06-08T10:36:19.630Z,40.92
2019-06-08T10:38:52.302Z,40.29
2019-06-08T10:41:27.655Z,40.66
2019-06-08T10:43:59.344Z,40.33
2019-06-08T10:46:31.980Z,41.69
2019-06-08T10:49:08.477Z,42.19
2019-06-08T10:51:40.805Z,43.00
2019-06-08T10:54:14.223Z,42.03
2019-06-08T10:56:48.564Z,41.80
2019-06-08T10:59:21.108Z,41.92
2019-06-08T11:01:54.109Z,42.16
2019-06-08T11:04:28.692Z,42.57
2019-06-08T11:07:07.216Z,43.48
2019-06-08T11:09:35.258Z,43.39
2019-06-08T11:12:14.328Z,43.78
2019-06-08T11:14:41.716Z,43.77
2019-06-08T11:17:14.379Z,43.67
2019-06-08T11:19:48.036Z,42.28
2019-06-08T11:22:20.858Z,41.79
2019-06-08T11:24:53.565Z,40.42
2019-06-08T11:27:28.538Z,40.69
2019-06-08T11:30:01.745Z,39.94
2019-06-08T11:32:34.418Z,40.57
2019-06-08T11:35:12.348Z,40.04
2019-06-08T11:37:45.245Z,40.36
2019-06-08T11:40:20.769Z,39.79
2019-06-08T11:42:54.998Z,40.45
2019-06-08T11:45:27.689Z,41.14
2019-06-08T11:48:00.545Z,41.46
2019-06-08T11:50:42.095Z,42.13
2019-06-08T11:53:17.846Z,42.84
2019-06-08T11:55:51.069Z,43.30
2019-06-08T11:58:28.325Z,43.99
2019-06-08T12:01:10.024Z,44.12
2019-06-08T12:03:39.803Z,45.03
2019-06-08T12:06:14.215Z,45.45
2019-06-08T12:08:47.323Z,45.85
2019-06-08T12:11:22.995Z,46.13
2019-06-08T12:13:54.800Z,46.67
2019-06-08T12:16:28.296Z,47.57
2019-06-08T12:19:01.822Z,48.71
2019-06-08T12:21:34.522Z,48.99
2019-06-08T12:24:08.273Z,48.99
2019-06-08T12:26:40.884Z,49.44
2019-06-08T12:29:14.978Z,50.05
2019-06-08T12:31:47.863Z,50.23
2019-06-08T12:34:20.120Z,50.41
2019-06-08T12:36:53.313Z,50.77
2019-06-08T12:39:28.174Z,51.27
2019-06-08T12:42:00.626Z,51.31
2019-06-08T12:44:33.309Z,51.31
2019-06-08T12:47:07.981Z,51.20
2019-06-08T12:49:40.494Z,51.65
2019-06-08T12:52:14.514Z,51.90
2019-06-08T12:54:59.297Z,51.32
2019-06-08T12:57:22.173Z,51.09
2019-06-08T12:59:54.893Z,50.98
2019-06-08T13:02:28.088Z,51.10
2019-06-08T13:05:00.923Z,50.88
2019-06-08T13:07:34.253Z,50.79
2019-06-08T13:10:08.859Z,51.25
2019-06-08T13:12:41.686Z,50.38
2019-06-08T13:15:14.769Z,49.91
2019-06-08T13:17:47.783Z,49.79
2019-06-08T13:20:23.249Z,49.65
2019-06-08T13:22:57.567Z,49.57
2019-06-08T13:25:39.659Z,49.16
2019-06-08T13:28:04.398Z,49.09
2019-06-08T13:30:39.012Z,49.29
2019-06-08T13:33:12.009Z,48.90
2019-06-08T13:35:47.827Z,48.83
2019-06-08T13:38:21.750Z,48.59
2019-06-08T13:40:53.738Z,47.44
2019-06-08T13:43:26.427Z,46.14
2019-06-08T13:45:59.095Z,45.87
2019-06-08T13:48:31.800Z,43.11
2019-06-08T13:51:04.467Z,41.09
2019-06-08T13:53:38.310Z,41.30
2019-06-08T13:56:11.159Z,39.82
2019-06-08T13:58:43.830Z,38.97
2019-06-08T14:01:17.656Z,37.31
2019-06-08T14:03:50.837Z,36.07
2019-06-08T14:06:24.902Z,35.66
2019-06-08T14:08:58.962Z,35.28
2019-06-08T14:11:31.631Z,31.57
2019-06-08T14:14:04.316Z,29.86
2019-06-08T14:16:38.922Z,27.67
2019-06-08T14:19:11.299Z,28.08
2019-06-08T14:21:44.002Z,28.48
2019-06-08T14:24:24.105Z,26.45
2019-06-08T14:26:53.242Z,26.29
2019-06-08T14:29:28.977Z,25.54
2019-06-08T14:32:01.463Z,24.99
2019-06-08T14:34:34.142Z,24.88
2019-06-08T14:37:08.638Z,24.86
2019-06-08T14:39:41.131Z,24.57
2019-06-08T14:42:13.591Z,24.82
2019-06-08T14:44:47.934Z,23.60
2019-06-08T14:47:20.942Z,21.81
2019-06-08T14:49:53.909Z,21.65
2019-06-08T14:52:29.718Z,22.31
2019-06-08T14:55:00.904Z,22.06
2019-06-08T14:57:33.587Z,22.10
2019-06-08T15:00:12.193Z,22.40
2019-06-08T15:02:43.029Z,21.71
2019-06-08T15:05:19.451Z,21.59
2019-06-08T15:07:51.158Z,21.62
2019-06-08T15:10:23.839Z,21.64
2019-06-08T15:12:57.745Z,21.36
2019-06-08T15:15:32.188Z,21.57
2019-06-08T15:18:07.796Z,21.66
2019-06-08T15:20:39.564Z,21.51
2019-06-08T15:23:12.245Z,20.23
2019-06-08T15:25:45.033Z,20.49
2019-06-08T15:28:18.212Z,20.61
2019-06-08T15:30:51.205Z,20.71
2019-06-08T15:33:24.895Z,20.23
2019-06-08T15:35:57.697Z,20.56
2019-06-08T15:38:32.417Z,20.42
2019-06-08T15:41:04.681Z,20.44
2019-06-08T15:43:39.576Z,20.38
2019-06-08T15:46:11.170Z,19.93
2019-06-08T15:48:43.766Z,19.38
2019-06-08T15:51:16.425Z,18.81
2019-06-08T15:53:49.109Z,19.16
2019-06-08T15:56:35.591Z,19.46
2019-06-08T15:58:56.002Z,18.49
2019-06-08T16:01:29.403Z,18.54
2019-06-08T16:04:04.155Z,19.14
2019-06-08T16:06:36.505Z,18.64
2019-06-08T16:09:10.466Z,19.13
2019-06-08T16:11:43.094Z,19.29
2019-06-08T16:14:15.822Z,19.20
2019-06-08T16:16:49.380Z,19.17
2019-06-08T16:19:23.423Z,18.85
2019-06-08T16:21:56.167Z,18.78
2019-06-08T16:24:29.771Z,18.70
2019-06-08T16:27:02.747Z,18.42
2019-06-08T16:29:35.431Z,18.44
2019-06-08T16:32:08.325Z,18.34
2019-06-08T16:34:41.038Z,18.66
2019-06-08T16:37:13.714Z,18.90
2019-06-08T16:39:46.354Z,18.52
2019-06-08T16:42:19.021Z,18.54
2019-06-08T16:44:51.916Z,18.97
2019-06-08T16:47:24.587Z,18.93
2019-06-08T16:49:57.282Z,18.96
2019-06-08T16:52:30.374Z,18.84
2019-06-08T16:55:03.045Z,18.80
2019-06-08T16:57:38.296Z,18.52
2019-06-08T17:02:45.390Z,18.77
2019-06-08T17:05:18.066Z,19.38
2019-06-08T17:07:50.336Z,19.18
2019-06-08T17:10:22.999Z,19.34
2019-06-08T17:12:55.682Z,19.59
2019-06-08T17:15:29.840Z,19.73
2019-06-08T17:18:03.223Z,20.01
2019-06-08T17:20:36.303Z,20.18
2019-06-08T17:23:09.068Z,20.16
2019-06-08T17:25:41.954Z,20.68
2019-06-08T17:28:14.625Z,20.78
2019-06-08T17:30:47.314Z,21.36
2019-06-08T17:33:20.005Z,21.99
2019-06-08T17:35:52.677Z,22.35
2019-06-08T17:38:24.942Z,22.94
2019-06-08T17:40:57.611Z,22.79
2019-06-08T17:43:30.307Z,23.20
2019-06-08T17:46:02.971Z,23.05
2019-06-08T17:48:36.468Z,23.61
2019-06-08T17:51:09.358Z,24.10
2019-06-08T17:53:43.254Z,24.47
2019-06-08T17:56:16.361Z,24.42
2019-06-08T17:58:49.042Z,24.36
2019-06-08T18:01:21.724Z,25.00
2019-06-08T18:03:54.402Z,25.78
2019-06-08T18:06:27.237Z,25.92
2019-06-08T18:08:59.961Z,26.71
2019-06-08T18:11:34.183Z,27.11
2019-06-08T18:14:07.445Z,28.34
2019-06-08T18:16:42.166Z,28.39
2019-06-08T18:19:30.341Z,29.00
2019-06-08T18:22:05.823Z,29.45
2019-06-08T18:24:39.439Z,30.66
2019-06-08T18:27:11.967Z,30.98
2019-06-08T18:29:46.100Z,31.54
2019-06-08T18:32:18.536Z,31.99
2019-06-08T18:34:50.758Z,32.55
2019-06-08T18:37:23.398Z,33.55
2019-06-08T18:39:57.854Z,34.31
2019-06-08T18:42:30.285Z,34.40
2019-06-08T18:45:02.971Z,34.73
2019-06-08T18:47:37.581Z,35.06
2019-06-08T18:50:09.542Z,35.56
2019-06-08T18:52:45.342Z,36.10
2019-06-08T18:55:18.550Z,36.81
2019-06-08T18:57:51.320Z,37.22
2019-06-08T19:00:34.630Z,38.15
2019-06-08T19:03:09.049Z,38.80
2019-06-08T19:05:45.657Z,39.37
2019-06-08T19:08:20.228Z,40.29
2019-06-08T19:10:52.913Z,41.25
2019-06-08T19:13:27.116Z,41.11
2019-06-08T19:15:59.986Z,42.39
2019-06-08T19:18:33.288Z,43.14
2019-06-08T19:21:07.737Z,43.70
2019-06-08T19:23:44.882Z,44.65
2019-06-08T19:26:22.889Z,44.64
2019-06-08T23:29:21.232Z,62.19
